sensor_id;sensor_type;location;lat;lon;timestamp;P1;durP1;ratioP1;P2;durP2;ratioP2
15516;SDS011;7860;52.030;5.572;2023-01-19T00:02:53;24.99;;;15.16;;
15516;SDS011;7860;52.030;5.572;2023-01-19T00:02:53;24.88;;;15.06;;
15516;SDS011;7860;52.030;5.572;2023-01-19T00:02:53;23.97;;;14.51;;
15516;SDS011;7860;52.030;5.572;2023-01-19T00:03:50;23.23;;;14.96;;
15516;SDS011;7860;52.030;5.572;2023-01-19T00:04:50;22.69;;;14.59;;
15516;SDS011;7860;52.030;5.572;2023-01-19T00:05:51;23.29;;;15.48;;
15516;SDS011;7860;52.030;5.572;2023-01-19T00:06:51;23.71;;;15.26;;
15516;SDS011;7860;52.030;5.572;2023-01-19T00:07:52;24.43;;;14.97;;
15516;SDS011;7860;52.030;5.572;2023-01-19T00:08:52;23.31;;;15.10;;
15516;SDS011;7860;52.030;5.572;2023-01-19T00:09:53;22.76;;;15.10;;
15516;SDS011;7860;52.030;5.572;2023-01-19T00:10:53;24.11;;;14.90;;
15516;SDS011;7860;52.030;5.572;2023-01-19T00:11:54;24.91;;;15.24;;
15516;SDS011;7860;52.030;5.572;2023-01-19T00:12:54;22.18;;;14.84;;
15516;SDS011;7860;52.030;5.572;2023-01-19T00:13:55;21.46;;;14.46;;
15516;SDS011;7860;52.030;5.572;2023-01-19T00:14:55;24.71;;;15.32;;
15516;SDS011;7860;52.030;5.572;2023-01-19T00:15:56;25.80;;;16.08;;
15516;SDS011;7860;52.030;5.572;2023-01-19T00:16:56;26.77;;;16.04;;
15516;SDS011;7860;52.030;5.572;2023-01-19T00:17:57;24.26;;;16.01;;
15516;SDS011;7860;52.030;5.572;2023-01-19T00:18:57;25.11;;;15.76;;
15516;SDS011;7860;52.030;5.572;2023-01-19T00:19:57;22.30;;;15.96;;
15516;SDS011;7860;52.030;5.572;2023-01-19T00:20:58;27.31;;;16.83;;
15516;SDS011;7860;52.030;5.572;2023-01-19T00:21:59;26.45;;;16.39;;
15516;SDS011;7860;52.030;5.572;2023-01-19T00:22:59;23.50;;;16.15;;
15516;SDS011;7860;52.030;5.572;2023-01-19T00:23:59;26.23;;;16.68;;
15516;SDS011;7860;52.030;5.572;2023-01-19T00:24:59;23.26;;;16.98;;
15516;SDS011;7860;52.030;5.572;2023-01-19T00:26:00;24.29;;;16.79;;
15516;SDS011;7860;52.030;5.572;2023-01-19T00:27:00;24.38;;;16.28;;
15516;SDS011;7860;52.030;5.572;2023-01-19T00:28:01;24.52;;;16.97;;
15516;SDS011;7860;52.030;5.572;2023-01-19T00:29:01;24.59;;;17.33;;
15516;SDS011;7860;52.030;5.572;2023-01-19T00:30:04;21.79;;;15.59;;
15516;SDS011;7860;52.030;5.572;2023-01-19T00:31:02;26.30;;;16.90;;
15516;SDS011;7860;52.030;5.572;2023-01-19T00:32:03;23.91;;;17.11;;
15516;SDS011;7860;52.030;5.572;2023-01-19T00:33:03;25.15;;;16.94;;
15516;SDS011;7860;52.030;5.572;2023-01-19T00:34:04;25.44;;;17.25;;
15516;SDS011;7860;52.030;5.572;2023-01-19T00:35:05;25.74;;;16.63;;
15516;SDS011;7860;52.030;5.572;2023-01-19T00:36:05;23.64;;;16.29;;
15516;SDS011;7860;52.030;5.572;2023-01-19T00:37:06;25.90;;;16.48;;
15516;SDS011;7860;52.030;5.572;2023-01-19T00:38:06;25.30;;;16.24;;
15516;SDS011;7860;52.030;5.572;2023-01-19T00:39:07;26.16;;;16.10;;
15516;SDS011;7860;52.030;5.572;2023-01-19T00:40:08;24.13;;;16.49;;
15516;SDS011;7860;52.030;5.572;2023-01-19T00:41:08;23.68;;;16.86;;
15516;SDS011;7860;52.030;5.572;2023-01-19T00:42:10;24.83;;;16.58;;
15516;SDS011;7860;52.030;5.572;2023-01-19T00:43:09;26.80;;;16.60;;
15516;SDS011;7860;52.030;5.572;2023-01-19T00:44:10;23.79;;;16.57;;
15516;SDS011;7860;52.030;5.572;2023-01-19T00:45:11;24.64;;;15.76;;
15516;SDS011;7860;52.030;5.572;2023-01-19T00:46:11;24.04;;;16.15;;
15516;SDS011;7860;52.030;5.572;2023-01-19T00:47:11;25.31;;;16.51;;
15516;SDS011;7860;52.030;5.572;2023-01-19T00:48:11;26.59;;;16.02;;
15516;SDS011;7860;52.030;5.572;2023-01-19T00:49:12;22.79;;;16.09;;
15516;SDS011;7860;52.030;5.572;2023-01-19T00:50:14;25.37;;;15.90;;
15516;SDS011;7860;52.030;5.572;2023-01-19T00:51:13;26.59;;;16.24;;
15516;SDS011;7860;52.030;5.572;2023-01-19T00:52:14;25.44;;;16.43;;
15516;SDS011;7860;52.030;5.572;2023-01-19T00:53:15;25.40;;;16.26;;
15516;SDS011;7860;52.030;5.572;2023-01-19T00:54:15;23.86;;;16.23;;
15516;SDS011;7860;52.030;5.572;2023-01-19T00:55:16;24.15;;;15.48;;
15516;SDS011;7860;52.030;5.572;2023-01-19T00:56:16;24.26;;;16.25;;
15516;SDS011;7860;52.030;5.572;2023-01-19T00:57:17;24.61;;;15.70;;
15516;SDS011;7860;52.030;5.572;2023-01-19T00:58:17;25.57;;;15.60;;
15516;SDS011;7860;52.030;5.572;2023-01-19T00:59:18;25.58;;;15.49;;
15516;SDS011;7860;52.030;5.572;2023-01-19T01:00:18;24.29;;;15.35;;
15516;SDS011;7860;52.030;5.572;2023-01-19T01:01:19;24.13;;;14.82;;
15516;SDS011;7860;52.030;5.572;2023-01-19T01:02:19;24.19;;;14.99;;
15516;SDS011;7860;52.030;5.572;2023-01-19T01:03:20;23.64;;;15.37;;
15516;SDS011;7860;52.030;5.572;2023-01-19T01:04:20;27.25;;;15.25;;
15516;SDS011;7860;52.030;5.572;2023-01-19T01:05:21;24.90;;;15.35;;
15516;SDS011;7860;52.030;5.572;2023-01-19T01:06:21;23.12;;;15.39;;
15516;SDS011;7860;52.030;5.572;2023-01-19T01:07:23;23.10;;;14.74;;
15516;SDS011;7860;52.030;5.572;2023-01-19T01:08:22;25.43;;;15.32;;
15516;SDS011;7860;52.030;5.572;2023-01-19T01:09:23;23.11;;;15.59;;
15516;SDS011;7860;52.030;5.572;2023-01-19T01:10:25;25.16;;;15.40;;
15516;SDS011;7860;52.030;5.572;2023-01-19T01:11:24;23.21;;;14.82;;
15516;SDS011;7860;52.030;5.572;2023-01-19T01:12:25;23.53;;;15.20;;
15516;SDS011;7860;52.030;5.572;2023-01-19T01:13:26;22.29;;;14.81;;
15516;SDS011;7860;52.030;5.572;2023-01-19T01:14:26;24.30;;;15.00;;
15516;SDS011;7860;52.030;5.572;2023-01-19T01:15:27;21.43;;;14.08;;
15516;SDS011;7860;52.030;5.572;2023-01-19T01:16:27;22.83;;;15.00;;
15516;SDS011;7860;52.030;5.572;2023-01-19T01:17:28;23.99;;;14.91;;
15516;SDS011;7860;52.030;5.572;2023-01-19T01:18:28;23.72;;;14.70;;
15516;SDS011;7860;52.030;5.572;2023-01-19T01:19:29;23.60;;;14.28;;
15516;SDS011;7860;52.030;5.572;2023-01-19T01:20:30;24.96;;;15.49;;
15516;SDS011;7860;52.030;5.572;2023-01-19T01:21:30;21.31;;;14.57;;
15516;SDS011;7860;52.030;5.572;2023-01-19T01:22:31;22.19;;;13.88;;
15516;SDS011;7860;52.030;5.572;2023-01-19T01:23:31;22.19;;;13.93;;
15516;SDS011;7860;52.030;5.572;2023-01-19T01:24:31;22.30;;;13.88;;
15516;SDS011;7860;52.030;5.572;2023-01-19T01:25:32;23.41;;;13.78;;
15516;SDS011;7860;52.030;5.572;2023-01-19T01:26:32;20.07;;;13.38;;
15516;SDS011;7860;52.030;5.572;2023-01-19T01:27:32;22.29;;;12.98;;
15516;SDS011;7860;52.030;5.572;2023-01-19T01:28:33;18.45;;;12.27;;
15516;SDS011;7860;52.030;5.572;2023-01-19T01:29:34;18.16;;;12.47;;
15516;SDS011;7860;52.030;5.572;2023-01-19T01:30:34;18.11;;;12.45;;
15516;SDS011;7860;52.030;5.572;2023-01-19T01:31:35;18.84;;;12.28;;
15516;SDS011;7860;52.030;5.572;2023-01-19T01:32:36;20.02;;;12.23;;
15516;SDS011;7860;52.030;5.572;2023-01-19T01:33:37;19.48;;;11.86;;
15516;SDS011;7860;52.030;5.572;2023-01-19T01:34:37;20.32;;;12.10;;
15516;SDS011;7860;52.030;5.572;2023-01-19T01:35:38;16.17;;;11.02;;
15516;SDS011;7860;52.030;5.572;2023-01-19T01:36:38;18.14;;;11.50;;
15516;SDS011;7860;52.030;5.572;2023-01-19T01:37:39;18.27;;;11.89;;
15516;SDS011;7860;52.030;5.572;2023-01-19T01:38:39;18.71;;;12.15;;
15516;SDS011;7860;52.030;5.572;2023-01-19T01:39:40;16.78;;;11.41;;
15516;SDS011;7860;52.030;5.572;2023-01-19T01:40:40;16.77;;;11.50;;
15516;SDS011;7860;52.030;5.572;2023-01-19T01:41:40;18.32;;;11.76;;
15516;SDS011;7860;52.030;5.572;2023-01-19T01:42:41;17.18;;;12.09;;
15516;SDS011;7860;52.030;5.572;2023-01-19T01:43:42;16.78;;;11.99;;
15516;SDS011;7860;52.030;5.572;2023-01-19T01:44:43;20.43;;;11.96;;
15516;SDS011;7860;52.030;5.572;2023-01-19T01:45:43;20.06;;;12.46;;
15516;SDS011;7860;52.030;5.572;2023-01-19T01:46:43;18.82;;;12.46;;
15516;SDS011;7860;52.030;5.572;2023-01-19T01:47:45;18.73;;;12.33;;
15516;SDS011;7860;52.030;5.572;2023-01-19T01:48:47;18.71;;;12.00;;
15516;SDS011;7860;52.030;5.572;2023-01-19T01:49:45;18.54;;;12.31;;
15516;SDS011;7860;52.030;5.572;2023-01-19T01:50:47;18.35;;;12.44;;
15516;SDS011;7860;52.030;5.572;2023-01-19T01:51:47;18.40;;;12.35;;
15516;SDS011;7860;52.030;5.572;2023-01-19T01:52:48;17.53;;;12.15;;
15516;SDS011;7860;52.030;5.572;2023-01-19T01:53:48;17.60;;;12.06;;
15516;SDS011;7860;52.030;5.572;2023-01-19T01:54:48;17.45;;;11.53;;
15516;SDS011;7860;52.030;5.572;2023-01-19T01:55:49;16.93;;;12.01;;
15516;SDS011;7860;52.030;5.572;2023-01-19T01:56:50;17.94;;;11.74;;
15516;SDS011;7860;52.030;5.572;2023-01-19T01:57:50;17.04;;;10.80;;
15516;SDS011;7860;52.030;5.572;2023-01-19T01:58:51;16.74;;;11.16;;
15516;SDS011;7860;52.030;5.572;2023-01-19T01:59:51;17.01;;;11.54;;
15516;SDS011;7860;52.030;5.572;2023-01-19T02:00:52;17.20;;;11.31;;
15516;SDS011;7860;52.030;5.572;2023-01-19T02:01:53;15.93;;;11.41;;
15516;SDS011;7860;52.030;5.572;2023-01-19T02:02:52;16.59;;;11.53;;
15516;SDS011;7860;52.030;5.572;2023-01-19T02:03:53;16.39;;;11.20;;
15516;SDS011;7860;52.030;5.572;2023-01-19T02:04:55;15.35;;;11.36;;
15516;SDS011;7860;52.030;5.572;2023-01-19T02:05:55;15.88;;;11.24;;
15516;SDS011;7860;52.030;5.572;2023-01-19T02:06:55;15.10;;;10.81;;
15516;SDS011;7860;52.030;5.572;2023-01-19T02:07:57;16.55;;;11.22;;
15516;SDS011;7860;52.030;5.572;2023-01-19T02:08:57;16.76;;;11.90;;
15516;SDS011;7860;52.030;5.572;2023-01-19T02:09:57;16.65;;;11.44;;
15516;SDS011;7860;52.030;5.572;2023-01-19T02:10:57;19.11;;;11.64;;
15516;SDS011;7860;52.030;5.572;2023-01-19T02:11:58;15.85;;;11.82;;
15516;SDS011;7860;52.030;5.572;2023-01-19T02:12:59;18.20;;;12.56;;
15516;SDS011;7860;52.030;5.572;2023-01-19T02:13:59;17.84;;;12.66;;
15516;SDS011;7860;52.030;5.572;2023-01-19T02:15:00;17.71;;;12.48;;
15516;SDS011;7860;52.030;5.572;2023-01-19T02:16:00;17.26;;;12.52;;
15516;SDS011;7860;52.030;5.572;2023-01-19T02:17:00;18.03;;;12.81;;
15516;SDS011;7860;52.030;5.572;2023-01-19T02:18:01;18.49;;;13.15;;
15516;SDS011;7860;52.030;5.572;2023-01-19T02:19:02;15.33;;;11.70;;
15516;SDS011;7860;52.030;5.572;2023-01-19T02:20:02;16.75;;;12.07;;
15516;SDS011;7860;52.030;5.572;2023-01-19T02:21:06;19.58;;;12.95;;
15516;SDS011;7860;52.030;5.572;2023-01-19T02:22:03;18.54;;;12.95;;
15516;SDS011;7860;52.030;5.572;2023-01-19T02:23:04;17.48;;;12.74;;
15516;SDS011;7860;52.030;5.572;2023-01-19T02:24:03;20.18;;;12.95;;
15516;SDS011;7860;52.030;5.572;2023-01-19T02:25:03;18.49;;;12.73;;
15516;SDS011;7860;52.030;5.572;2023-01-19T02:26:04;19.71;;;12.61;;
15516;SDS011;7860;52.030;5.572;2023-01-19T02:27:05;19.58;;;12.91;;
15516;SDS011;7860;52.030;5.572;2023-01-19T02:28:05;21.16;;;13.35;;
15516;SDS011;7860;52.030;5.572;2023-01-19T02:29:06;20.03;;;13.30;;
15516;SDS011;7860;52.030;5.572;2023-01-19T02:30:06;19.47;;;13.33;;
15516;SDS011;7860;52.030;5.572;2023-01-19T02:31:07;18.85;;;13.35;;
15516;SDS011;7860;52.030;5.572;2023-01-19T02:32:07;18.60;;;13.14;;
15516;SDS011;7860;52.030;5.572;2023-01-19T02:33:08;19.28;;;12.55;;
15516;SDS011;7860;52.030;5.572;2023-01-19T02:34:09;18.53;;;12.53;;
15516;SDS011;7860;52.030;5.572;2023-01-19T02:35:08;20.32;;;12.51;;
15516;SDS011;7860;52.030;5.572;2023-01-19T02:36:09;17.66;;;12.03;;
15516;SDS011;7860;52.030;5.572;2023-01-19T02:37:09;16.90;;;11.26;;
15516;SDS011;7860;52.030;5.572;2023-01-19T02:38:09;18.49;;;11.88;;
15516;SDS011;7860;52.030;5.572;2023-01-19T02:39:10;17.59;;;11.68;;
15516;SDS011;7860;52.030;5.572;2023-01-19T02:40:11;17.21;;;11.32;;
15516;SDS011;7860;52.030;5.572;2023-01-19T02:41:12;16.41;;;10.58;;
15516;SDS011;7860;52.030;5.572;2023-01-19T02:42:12;17.81;;;10.82;;
15516;SDS011;7860;52.030;5.572;2023-01-19T02:43:12;17.58;;;10.58;;
15516;SDS011;7860;52.030;5.572;2023-01-19T02:44:13;15.63;;;10.32;;
15516;SDS011;7860;52.030;5.572;2023-01-19T02:45:13;16.69;;;10.03;;
15516;SDS011;7860;52.030;5.572;2023-01-19T02:46:14;15.70;;;9.83;;
15516;SDS011;7860;52.030;5.572;2023-01-19T02:47:14;16.93;;;10.24;;
15516;SDS011;7860;52.030;5.572;2023-01-19T02:48:15;16.88;;;10.43;;
15516;SDS011;7860;52.030;5.572;2023-01-19T02:49:15;15.42;;;10.11;;
15516;SDS011;7860;52.030;5.572;2023-01-19T02:50:34;14.67;;;9.32;;
15516;SDS011;7860;52.030;5.572;2023-01-19T02:51:17;14.99;;;9.19;;
15516;SDS011;7860;52.030;5.572;2023-01-19T02:52:17;16.15;;;9.02;;
15516;SDS011;7860;52.030;5.572;2023-01-19T02:53:37;13.83;;;8.32;;
15516;SDS011;7860;52.030;5.572;2023-01-19T02:54:23;13.19;;;7.22;;
15516;SDS011;7860;52.030;5.572;2023-01-19T02:55:19;13.24;;;6.76;;
15516;SDS011;7860;52.030;5.572;2023-01-19T02:56:24;11.77;;;5.48;;
15516;SDS011;7860;52.030;5.572;2023-01-19T02:57:24;11.44;;;5.60;;
15516;SDS011;7860;52.030;5.572;2023-01-19T02:58:21;7.93;;;3.90;;
15516;SDS011;7860;52.030;5.572;2023-01-19T02:59:26;9.88;;;4.03;;
15516;SDS011;7860;52.030;5.572;2023-01-19T03:00:25;10.96;;;3.79;;
15516;SDS011;7860;52.030;5.572;2023-01-19T03:01:25;8.52;;;3.07;;
15516;SDS011;7860;52.030;5.572;2023-01-19T03:02:26;8.75;;;3.15;;
15516;SDS011;7860;52.030;5.572;2023-01-19T03:03:24;9.16;;;3.05;;
15516;SDS011;7860;52.030;5.572;2023-01-19T03:04:26;7.60;;;2.87;;
15516;SDS011;7860;52.030;5.572;2023-01-19T03:05:29;10.05;;;2.70;;
15516;SDS011;7860;52.030;5.572;2023-01-19T03:06:30;9.43;;;2.42;;
15516;SDS011;7860;52.030;5.572;2023-01-19T03:07:29;6.53;;;2.27;;
15516;SDS011;7860;52.030;5.572;2023-01-19T03:08:30;9.59;;;2.48;;
15516;SDS011;7860;52.030;5.572;2023-01-19T03:09:28;8.04;;;2.26;;
15516;SDS011;7860;52.030;5.572;2023-01-19T03:10:29;11.16;;;1.91;;
15516;SDS011;7860;52.030;5.572;2023-01-19T03:11:30;7.73;;;1.99;;
15516;SDS011;7860;52.030;5.572;2023-01-19T03:12:30;7.54;;;1.80;;
15516;SDS011;7860;52.030;5.572;2023-01-19T03:13:32;8.54;;;2.01;;
15516;SDS011;7860;52.030;5.572;2023-01-19T03:14:30;9.83;;;2.18;;
15516;SDS011;7860;52.030;5.572;2023-01-19T03:15:33;6.82;;;1.68;;
15516;SDS011;7860;52.030;5.572;2023-01-19T03:16:33;7.51;;;1.81;;
15516;SDS011;7860;52.030;5.572;2023-01-19T03:17:32;8.81;;;1.77;;
15516;SDS011;7860;52.030;5.572;2023-01-19T03:18:33;6.61;;;1.79;;
15516;SDS011;7860;52.030;5.572;2023-01-19T03:19:34;7.19;;;1.94;;
15516;SDS011;7860;52.030;5.572;2023-01-19T03:20:34;6.41;;;1.76;;
15516;SDS011;7860;52.030;5.572;2023-01-19T03:21:35;5.68;;;1.59;;
15516;SDS011;7860;52.030;5.572;2023-01-19T03:22:35;6.63;;;1.46;;
15516;SDS011;7860;52.030;5.572;2023-01-19T03:23:35;6.20;;;1.77;;
15516;SDS011;7860;52.030;5.572;2023-01-19T03:24:36;7.29;;;1.48;;
15516;SDS011;7860;52.030;5.572;2023-01-19T03:25:37;7.03;;;1.68;;
15516;SDS011;7860;52.030;5.572;2023-01-19T03:26:37;7.48;;;1.76;;
15516;SDS011;7860;52.030;5.572;2023-01-19T03:27:37;6.34;;;1.41;;
15516;SDS011;7860;52.030;5.572;2023-01-19T03:28:39;4.92;;;1.39;;
15516;SDS011;7860;52.030;5.572;2023-01-19T03:29:39;5.64;;;1.59;;
15516;SDS011;7860;52.030;5.572;2023-01-19T03:30:41;4.25;;;1.43;;
15516;SDS011;7860;52.030;5.572;2023-01-19T03:31:41;5.49;;;1.50;;
15516;SDS011;7860;52.030;5.572;2023-01-19T03:32:41;9.63;;;1.64;;
15516;SDS011;7860;52.030;5.572;2023-01-19T03:33:42;4.91;;;1.35;;
15516;SDS011;7860;52.030;5.572;2023-01-19T03:34:42;6.19;;;1.45;;
15516;SDS011;7860;52.030;5.572;2023-01-19T03:35:43;6.08;;;1.49;;
15516;SDS011;7860;52.030;5.572;2023-01-19T03:36:44;7.02;;;1.52;;
15516;SDS011;7860;52.030;5.572;2023-01-19T03:37:44;6.65;;;1.56;;
15516;SDS011;7860;52.030;5.572;2023-01-19T03:38:44;6.02;;;1.46;;
15516;SDS011;7860;52.030;5.572;2023-01-19T03:39:44;4.96;;;1.36;;
15516;SDS011;7860;52.030;5.572;2023-01-19T03:40:45;4.86;;;1.28;;
15516;SDS011;7860;52.030;5.572;2023-01-19T03:41:46;5.85;;;1.43;;
15516;SDS011;7860;52.030;5.572;2023-01-19T03:42:47;6.32;;;1.59;;
15516;SDS011;7860;52.030;5.572;2023-01-19T03:43:47;5.96;;;1.57;;
15516;SDS011;7860;52.030;5.572;2023-01-19T03:44:48;4.06;;;1.44;;
15516;SDS011;7860;52.030;5.572;2023-01-19T03:45:48;4.95;;;1.46;;
15516;SDS011;7860;52.030;5.572;2023-01-19T03:46:49;5.86;;;1.47;;
15516;SDS011;7860;52.030;5.572;2023-01-19T03:47:50;6.11;;;1.60;;
15516;SDS011;7860;52.030;5.572;2023-01-19T03:48:50;3.72;;;1.36;;
15516;SDS011;7860;52.030;5.572;2023-01-19T03:49:50;4.97;;;1.19;;
15516;SDS011;7860;52.030;5.572;2023-01-19T03:50:50;2.79;;;0.96;;
15516;SDS011;7860;52.030;5.572;2023-01-19T03:51:53;5.26;;;1.38;;
15516;SDS011;7860;52.030;5.572;2023-01-19T03:53:00;6.17;;;1.35;;
15516;SDS011;7860;52.030;5.572;2023-01-19T03:53:52;3.35;;;1.12;;
15516;SDS011;7860;52.030;5.572;2023-01-19T03:54:53;4.28;;;1.16;;
15516;SDS011;7860;52.030;5.572;2023-01-19T03:55:53;4.15;;;1.28;;
15516;SDS011;7860;52.030;5.572;2023-01-19T03:56:54;6.19;;;1.43;;
15516;SDS011;7860;52.030;5.572;2023-01-19T03:57:54;3.79;;;1.12;;
15516;SDS011;7860;52.030;5.572;2023-01-19T03:58:55;5.68;;;1.30;;
15516;SDS011;7860;52.030;5.572;2023-01-19T03:59:56;5.09;;;1.28;;
15516;SDS011;7860;52.030;5.572;2023-01-19T04:00:56;6.50;;;1.45;;
15516;SDS011;7860;52.030;5.572;2023-01-19T04:01:57;4.52;;;1.45;;
15516;SDS011;7860;52.030;5.572;2023-01-19T04:02:57;6.13;;;1.38;;
15516;SDS011;7860;52.030;5.572;2023-01-19T04:03:58;7.58;;;1.42;;
15516;SDS011;7860;52.030;5.572;2023-01-19T04:04:58;5.04;;;1.34;;
15516;SDS011;7860;52.030;5.572;2023-01-19T04:05:59;5.87;;;1.37;;
15516;SDS011;7860;52.030;5.572;2023-01-19T04:06:59;5.94;;;1.53;;
15516;SDS011;7860;52.030;5.572;2023-01-19T04:08:00;5.18;;;1.38;;
15516;SDS011;7860;52.030;5.572;2023-01-19T04:09:00;5.12;;;1.35;;
15516;SDS011;7860;52.030;5.572;2023-01-19T04:10:00;4.75;;;1.67;;
15516;SDS011;7860;52.030;5.572;2023-01-19T04:11:01;5.42;;;1.48;;
15516;SDS011;7860;52.030;5.572;2023-01-19T04:12:02;5.11;;;1.38;;
15516;SDS011;7860;52.030;5.572;2023-01-19T04:13:02;6.26;;;1.36;;
15516;SDS011;7860;52.030;5.572;2023-01-19T04:14:02;4.28;;;1.17;;
15516;SDS011;7860;52.030;5.572;2023-01-19T04:15:04;5.58;;;1.69;;
15516;SDS011;7860;52.030;5.572;2023-01-19T04:16:05;5.08;;;1.20;;
15516;SDS011;7860;52.030;5.572;2023-01-19T04:17:04;4.58;;;1.19;;
15516;SDS011;7860;52.030;5.572;2023-01-19T04:18:04;3.64;;;1.20;;
15516;SDS011;7860;52.030;5.572;2023-01-19T04:19:05;3.96;;;1.28;;
15516;SDS011;7860;52.030;5.572;2023-01-19T04:20:05;3.43;;;1.17;;
15516;SDS011;7860;52.030;5.572;2023-01-19T04:21:06;4.55;;;1.37;;
15516;SDS011;7860;52.030;5.572;2023-01-19T04:22:06;4.37;;;1.17;;
15516;SDS011;7860;52.030;5.572;2023-01-19T04:23:07;4.75;;;1.40;;
15516;SDS011;7860;52.030;5.572;2023-01-19T04:24:08;3.92;;;1.27;;
15516;SDS011;7860;52.030;5.572;2023-01-19T04:25:08;5.77;;;1.59;;
15516;SDS011;7860;52.030;5.572;2023-01-19T04:26:09;5.23;;;1.32;;
15516;SDS011;7860;52.030;5.572;2023-01-19T04:27:10;5.80;;;1.48;;
15516;SDS011;7860;52.030;5.572;2023-01-19T04:28:10;6.27;;;1.41;;
15516;SDS011;7860;52.030;5.572;2023-01-19T04:29:11;3.49;;;1.23;;
15516;SDS011;7860;52.030;5.572;2023-01-19T04:30:11;4.36;;;1.56;;
15516;SDS011;7860;52.030;5.572;2023-01-19T04:31:11;4.94;;;1.49;;
15516;SDS011;7860;52.030;5.572;2023-01-19T04:32:12;4.53;;;1.53;;
15516;SDS011;7860;52.030;5.572;2023-01-19T04:33:12;5.80;;;1.34;;
15516;SDS011;7860;52.030;5.572;2023-01-19T04:34:13;5.25;;;1.46;;
15516;SDS011;7860;52.030;5.572;2023-01-19T04:35:13;3.25;;;1.35;;
15516;SDS011;7860;52.030;5.572;2023-01-19T04:36:14;5.99;;;1.78;;
15516;SDS011;7860;52.030;5.572;2023-01-19T04:37:15;4.95;;;1.56;;
15516;SDS011;7860;52.030;5.572;2023-01-19T04:38:15;5.87;;;1.56;;
15516;SDS011;7860;52.030;5.572;2023-01-19T04:39:16;4.69;;;1.51;;
15516;SDS011;7860;52.030;5.572;2023-01-19T04:40:17;4.74;;;1.71;;
15516;SDS011;7860;52.030;5.572;2023-01-19T04:41:17;5.82;;;1.70;;
15516;SDS011;7860;52.030;5.572;2023-01-19T04:42:18;4.22;;;1.59;;
15516;SDS011;7860;52.030;5.572;2023-01-19T04:43:19;4.92;;;1.63;;
15516;SDS011;7860;52.030;5.572;2023-01-19T04:44:19;6.08;;;1.84;;
15516;SDS011;7860;52.030;5.572;2023-01-19T04:45:20;5.80;;;1.87;;
15516;SDS011;7860;52.030;5.572;2023-01-19T04:46:20;4.75;;;1.80;;
15516;SDS011;7860;52.030;5.572;2023-01-19T04:47:21;7.34;;;1.94;;
15516;SDS011;7860;52.030;5.572;2023-01-19T04:48:21;6.18;;;1.85;;
15516;SDS011;7860;52.030;5.572;2023-01-19T04:49:21;5.87;;;1.76;;
15516;SDS011;7860;52.030;5.572;2023-01-19T04:50:22;6.92;;;2.17;;
15516;SDS011;7860;52.030;5.572;2023-01-19T04:51:23;5.58;;;2.18;;
15516;SDS011;7860;52.030;5.572;2023-01-19T04:52:23;8.06;;;2.39;;
15516;SDS011;7860;52.030;5.572;2023-01-19T04:53:24;7.45;;;2.38;;
15516;SDS011;7860;52.030;5.572;2023-01-19T04:54:25;6.38;;;2.22;;
15516;SDS011;7860;52.030;5.572;2023-01-19T04:55:25;8.98;;;2.67;;
15516;SDS011;7860;52.030;5.572;2023-01-19T04:56:26;6.44;;;2.51;;
15516;SDS011;7860;52.030;5.572;2023-01-19T04:57:27;8.97;;;2.68;;
15516;SDS011;7860;52.030;5.572;2023-01-19T04:58:28;7.03;;;2.59;;
15516;SDS011;7860;52.030;5.572;2023-01-19T04:59:28;7.82;;;2.59;;
15516;SDS011;7860;52.030;5.572;2023-01-19T05:00:29;7.70;;;2.75;;
15516;SDS011;7860;52.030;5.572;2023-01-19T05:01:29;7.08;;;2.72;;
15516;SDS011;7860;52.030;5.572;2023-01-19T05:02:30;7.99;;;2.95;;
15516;SDS011;7860;52.030;5.572;2023-01-19T05:03:31;8.84;;;2.72;;
15516;SDS011;7860;52.030;5.572;2023-01-19T05:04:31;8.13;;;2.87;;
15516;SDS011;7860;52.030;5.572;2023-01-19T05:05:32;7.12;;;2.77;;
15516;SDS011;7860;52.030;5.572;2023-01-19T05:06:32;7.58;;;2.70;;
15516;SDS011;7860;52.030;5.572;2023-01-19T05:07:32;7.96;;;2.58;;
15516;SDS011;7860;52.030;5.572;2023-01-19T05:08:32;7.86;;;2.58;;
15516;SDS011;7860;52.030;5.572;2023-01-19T05:09:33;10.14;;;2.60;;
15516;SDS011;7860;52.030;5.572;2023-01-19T05:10:33;6.77;;;2.28;;
15516;SDS011;7860;52.030;5.572;2023-01-19T05:11:34;10.08;;;2.49;;
15516;SDS011;7860;52.030;5.572;2023-01-19T05:12:34;8.60;;;2.37;;
15516;SDS011;7860;52.030;5.572;2023-01-19T05:13:35;8.66;;;2.14;;
15516;SDS011;7860;52.030;5.572;2023-01-19T05:14:36;7.85;;;2.16;;
15516;SDS011;7860;52.030;5.572;2023-01-19T05:15:36;8.44;;;2.26;;
15516;SDS011;7860;52.030;5.572;2023-01-19T05:16:37;7.56;;;2.19;;
15516;SDS011;7860;52.030;5.572;2023-01-19T05:17:37;8.11;;;2.19;;
15516;SDS011;7860;52.030;5.572;2023-01-19T05:18:38;8.67;;;2.02;;
15516;SDS011;7860;52.030;5.572;2023-01-19T05:19:39;7.72;;;1.92;;
15516;SDS011;7860;52.030;5.572;2023-01-19T05:20:39;7.89;;;1.91;;
15516;SDS011;7860;52.030;5.572;2023-01-19T05:21:40;7.55;;;2.09;;
15516;SDS011;7860;52.030;5.572;2023-01-19T05:22:40;7.27;;;2.19;;
15516;SDS011;7860;52.030;5.572;2023-01-19T05:23:41;7.60;;;2.09;;
15516;SDS011;7860;52.030;5.572;2023-01-19T05:24:41;6.06;;;1.78;;
15516;SDS011;7860;52.030;5.572;2023-01-19T05:25:41;6.62;;;1.95;;
15516;SDS011;7860;52.030;5.572;2023-01-19T05:26:42;8.58;;;2.10;;
15516;SDS011;7860;52.030;5.572;2023-01-19T05:27:42;6.48;;;1.69;;
15516;SDS011;7860;52.030;5.572;2023-01-19T05:28:43;7.94;;;1.74;;
15516;SDS011;7860;52.030;5.572;2023-01-19T05:29:43;6.92;;;2.20;;
15516;SDS011;7860;52.030;5.572;2023-01-19T05:30:44;6.80;;;1.77;;
15516;SDS011;7860;52.030;5.572;2023-01-19T05:31:44;4.88;;;1.58;;
15516;SDS011;7860;52.030;5.572;2023-01-19T05:32:45;5.80;;;1.58;;
15516;SDS011;7860;52.030;5.572;2023-01-19T05:33:45;7.68;;;1.75;;
15516;SDS011;7860;52.030;5.572;2023-01-19T05:34:45;7.13;;;1.77;;
15516;SDS011;7860;52.030;5.572;2023-01-19T05:35:47;6.32;;;1.72;;
15516;SDS011;7860;52.030;5.572;2023-01-19T05:36:47;7.01;;;1.73;;
15516;SDS011;7860;52.030;5.572;2023-01-19T05:37:47;8.57;;;1.93;;
15516;SDS011;7860;52.030;5.572;2023-01-19T05:38:48;8.97;;;2.05;;
15516;SDS011;7860;52.030;5.572;2023-01-19T05:39:48;8.74;;;2.04;;
15516;SDS011;7860;52.030;5.572;2023-01-19T05:40:54;9.77;;;2.10;;
15516;SDS011;7860;52.030;5.572;2023-01-19T05:41:50;8.31;;;2.08;;
15516;SDS011;7860;52.030;5.572;2023-01-19T05:42:50;6.72;;;1.76;;
15516;SDS011;7860;52.030;5.572;2023-01-19T05:43:50;7.85;;;1.90;;
15516;SDS011;7860;52.030;5.572;2023-01-19T05:44:50;9.26;;;2.26;;
15516;SDS011;7860;52.030;5.572;2023-01-19T05:45:51;8.26;;;1.98;;
15516;SDS011;7860;52.030;5.572;2023-01-19T05:46:52;9.46;;;2.24;;
15516;SDS011;7860;52.030;5.572;2023-01-19T05:47:52;11.88;;;2.27;;
15516;SDS011;7860;52.030;5.572;2023-01-19T05:48:53;10.91;;;2.14;;
15516;SDS011;7860;52.030;5.572;2023-01-19T05:49:53;8.96;;;2.02;;
15516;SDS011;7860;52.030;5.572;2023-01-19T05:50:56;10.10;;;1.92;;
15516;SDS011;7860;52.030;5.572;2023-01-19T05:51:54;12.70;;;2.03;;
15516;SDS011;7860;52.030;5.572;2023-01-19T05:52:55;7.34;;;2.25;;
15516;SDS011;7860;52.030;5.572;2023-01-19T05:53:56;8.81;;;2.11;;
15516;SDS011;7860;52.030;5.572;2023-01-19T05:54:56;7.81;;;2.10;;
15516;SDS011;7860;52.030;5.572;2023-01-19T05:55:58;9.85;;;2.23;;
15516;SDS011;7860;52.030;5.572;2023-01-19T05:56:57;8.92;;;2.11;;
15516;SDS011;7860;52.030;5.572;2023-01-19T05:57:58;8.69;;;2.28;;
15516;SDS011;7860;52.030;5.572;2023-01-19T05:58:58;11.70;;;2.27;;
15516;SDS011;7860;52.030;5.572;2023-01-19T05:59:59;9.50;;;2.16;;
15516;SDS011;7860;52.030;5.572;2023-01-19T06:01:00;10.06;;;2.28;;
15516;SDS011;7860;52.030;5.572;2023-01-19T06:02:00;11.21;;;2.46;;
15516;SDS011;7860;52.030;5.572;2023-01-19T06:03:00;11.94;;;2.44;;
15516;SDS011;7860;52.030;5.572;2023-01-19T06:04:01;9.81;;;2.32;;
15516;SDS011;7860;52.030;5.572;2023-01-19T06:05:02;12.36;;;2.65;;